Lambari d'Oeste, Brazil
Current Conditions -  °F | °C
As of 3:00 PM on Sunday 25 Jan 2015 (Local Time) from SBCY Reporting Station
Scattered Clouds Scattered Clouds  
Wind Chill: 88°   Ceiling: Unl
Heat Index: 90°   Visibility: 6mi
Dew Point: 66°   Wind: 9mph
Humidity: 49%   Direction: 30°NNE
Pressure: 29.83"   Gusts: NA
Location:  15.32°S, 58°W
Report Text: SBCY 251800Z 03008KT 9999 SCT020 31/19 Q1010
Loading
Personal Weather Stations






























Interactive Weather Map New forecast layout! Learn more

10-Day Weather Forecast

Advertisements
Track Severe Weather on mobile